Terminal Aerodrome Forecast
Issued by NWS

Home | Current Version | Previous Version | Graphics & Text | Print | Product List | Glossary On
Versions: 1 2 3 4 5 6 7 8 9 10 11 12 13 14 15 16
000
FTUS43 KBIS 241700
TAFDIK
TAF
KDIK 241736Z 2418/2518 28018KT P6SM BKN090
     FM242000 30018G29KT P6SM VCSH BKN060
     FM251100 30015KT P6SM OVC025=

USA.gov is the U.S. government's official web portal to all federal, state and local government web resources and services.